Time;durP1;ratioP1;P1;durP2;ratioP2;P2;SDS_P1;SDS_P2;PMS_P1;PMS_P2;Temp;Humidity;BMP_temperature;BMP_pressure;BME280_temperature;BME280_humidity;BME280_pressure;Samples;Min_cycle;Max_cycle;Signal;HPM_P1;HPM_P2
2021/07/28 00:01:22;;;;;;;;;;;;;;;27.56;37.89;100730.91;5016468;28;96652;-90
2021/07/28 00:03:54;;;;;;;;;;;;;;;27.57;38.02;100729.03;5029822;28;96809;-88
2021/07/28 00:06:26;;;;;;;;;;;;;;;27.70;38.08;100730.25;5021241;28;99173;-88
2021/07/28 00:08:53;;;;;;;;;;;;;;;27.63;38.04;100731.09;5025089;28;99297;-87
2021/07/28 00:14:01;;;;;;;;;;;;;;;27.36;38.48;100730.28;5023437;27;96823;-85
2021/07/28 00:16:28;;;;;;;;;;;;;;;27.49;38.43;100723.53;5021182;28;97871;-86
2021/07/28 00:19:03;;;;;;;;;;;;;;;27.46;38.48;100721.13;5023762;28;99248;-85
2021/07/28 00:24:13;;;;;;;;;;;;;;;27.30;39.17;100708.38;5032986;28;96793;-85
2021/07/28 00:26:42;;;;;;;;;;;;;;;27.44;38.90;100713.16;5023187;28;99319;-85
2021/07/28 00:29:10;;;;;;;;;;;;;;;27.37;39.47;100704.81;5020606;28;99595;-85
2021/07/28 00:31:37;;;;;;;;;;;;;;;27.35;39.06;100715.00;5023503;28;97045;-84
2021/07/28 00:34:05;;;;;;;;;;;;;;;27.30;39.80;100708.38;5026173;28;96809;-88
2021/07/28 00:36:31;;;;;;;;;;;;;;;27.34;39.49;100710.59;5027277;28;98930;-87
2021/07/28 00:38:59;;;;;;;;;;;;;;;27.13;39.63;100712.84;5031091;28;99214;-87
2021/07/28 00:41:29;;;;;;;;;;;;;;;27.19;39.80;100712.22;5029135;28;96921;-87
2021/07/28 00:43:55;;;;;;;;;;;;;;;27.23;39.93;100713.59;5034358;28;96949;-87
2021/07/28 00:46:24;;;;;;;;;;;;;;;27.11;40.39;100714.88;5033555;28;97806;-85
2021/07/28 00:48:51;;;;;;;;;;;;;;;27.19;39.95;100705.94;5029051;28;99460;-86
2021/07/28 00:51:18;;;;;;;;;;;;;;;27.07;40.01;100718.09;5027739;28;96923;-86
2021/07/28 00:53:44;;;;;;;;;;;;;;;27.04;40.54;100710.28;5026906;28;96811;-86
2021/07/28 00:56:12;;;;;;;;;;;;;;;26.96;40.28;100708.38;5023509;28;98616;-86
2021/07/28 00:58:40;;;;;;;;;;;;;;;26.86;40.54;100710.28;5024278;28;99484;-87
2021/07/28 01:01:07;;;;;;;;;;;;;;;26.81;41.14;100708.06;5024635;28;96852;-86
2021/07/28 01:03:42;;;;;;;;;;;;;;;26.77;41.42;100704.00;5026660;28;96774;-87
2021/07/28 01:06:09;;;;;;;;;;;;;;;26.72;41.83;100708.16;5012180;28;100291;-86
2021/07/28 01:08:37;;;;;;;;;;;;;;;26.68;42.11;100712.22;5009074;28;97966;-85
2021/07/28 01:11:04;;;;;;;;;;;;;;;26.69;42.30;100719.34;5022251;28;97304;-85
2021/07/28 01:13:32;;;;;;;;;;;;;;;26.51;42.58;100712.13;5033016;28;96838;-85
2021/07/28 01:16:06;;;;;;;;;;;;;;;26.62;42.14;100721.84;5026436;27;100288;-86
2021/07/28 01:18:34;;;;;;;;;;;;;;;26.49;42.54;100718.69;5019619;28;99935;-85
2021/07/28 01:21:02;;;;;;;;;;;;;;;26.54;42.69;100711.78;5015218;28;96727;-85
2021/07/28 01:23:33;;;;;;;;;;;;;;;26.55;42.02;100712.63;5019573;28;96945;-84
2021/07/28 01:26:00;;;;;;;;;;;;;;;26.48;42.20;100706.16;5019999;28;98019;-86
2021/07/28 01:28:28;;;;;;;;;;;;;;;26.56;41.67;100700.78;5025469;28;97991;-86
2021/07/28 01:31:00;;;;;;;;;;;;;;;26.49;41.19;100707.84;5017857;28;97065;-86
2021/07/28 01:33:29;;;;;;;;;;;;;;;26.41;41.76;100708.63;5022157;28;96802;-85
2021/07/28 01:35:55;;;;;;;;;;;;;;;26.37;42.60;100704.53;5024701;28;99290;-86
2021/07/28 01:38:25;;;;;;;;;;;;;;;26.39;43.16;100707.06;5032557;28;99084;-86
2021/07/28 01:40:53;;;;;;;;;;;;;;;26.35;43.09;100716.53;5017744;28;96885;-86
2021/07/28 01:43:21;;;;;;;;;;;;;;;26.31;43.65;100715.16;5027846;28;97050;-85
2021/07/28 01:45:47;;;;;;;;;;;;;;;26.16;44.55;100715.66;5024241;28;99765;-85
2021/07/28 01:48:14;;;;;;;;;;;;;;;26.11;44.40;100717.16;5024413;28;99463;-84
2021/07/28 01:50:42;;;;;;;;;;;;;;;26.15;44.70;100721.25;5023547;28;97011;-86
2021/07/28 01:53:08;;;;;;;;;;;;;;;26.19;43.49;100722.63;5017012;28;96944;-85
2021/07/28 01:55:36;;;;;;;;;;;;;;;26.19;43.22;100725.31;5028117;27;99229;-85
2021/07/28 01:58:07;;;;;;;;;;;;;;;26.15;44.07;100715.81;5029765;28;98672;-85
2021/07/28 02:00:34;;;;;;;;;;;;;;;26.08;42.91;100709.31;5028093;27;97078;-86
2021/07/28 02:03:03;;;;;;;;;;;;;;;26.13;44.18;100707.00;5037953;28;96606;-85
2021/07/28 02:05:29;;;;;;;;;;;;;;;25.64;43.65;100703.81;5038351;28;98247;-85
2021/07/28 02:08:02;;;;;;;;;;;;;;;25.87;44.99;100708.75;5038886;28;96855;-86
2021/07/28 02:10:29;;;;;;;;;;;;;;;25.94;44.50;100715.25;5043146;27;95912;-84
2021/07/28 02:12:56;;;;;;;;;;;;;;;25.97;44.32;100709.56;5042916;27;96603;-85
2021/07/28 02:15:24;;;;;;;;;;;;;;;26.06;44.01;100701.34;5037571;28;98130;-85
2021/07/28 02:17:50;;;;;;;;;;;;;;;26.07;43.39;100703.06;5039009;28;98332;-86
2021/07/28 02:20:17;;;;;;;;;;;;;;;25.88;44.56;100715.88;5044298;28;96875;-86
2021/07/28 02:22:43;;;;;;;;;;;;;;;25.91;45.38;100707.47;5018523;28;96553;-86
2021/07/28 02:25:10;;;;;;;;;;;;;;;25.95;45.41;100709.72;5027671;28;101289;-85
2021/07/28 02:27:38;;;;;;;;;;;;;;;26.01;45.72;100695.56;5031421;28;99222;-85
2021/07/28 02:30:05;;;;;;;;;;;;;;;25.90;45.41;100701.22;5042400;28;96867;-86
2021/07/28 02:32:34;;;;;;;;;;;;;;;25.88;45.60;100703.22;5019846;28;96977;-85
2021/07/28 02:35:00;;;;;;;;;;;;;;;25.85;45.32;100694.56;5031048;28;102042;-85
2021/07/28 02:37:26;;;;;;;;;;;;;;;25.82;45.29;100694.84;5030638;28;98484;-84
2021/07/28 02:39:53;;;;;;;;;;;;;;;25.81;46.02;100691.28;5045444;28;96751;-85
2021/07/28 02:42:20;;;;;;;;;;;;;;;25.76;45.92;100691.75;5035754;28;96705;-86
2021/07/28 02:44:46;;;;;;;;;;;;;;;25.72;46.41;100705.75;5039622;28;96884;-84
2021/07/28 02:47:12;;;;;;;;;;;;;;;25.56;47.20;100700.13;5040588;28;99262;-85
2021/07/28 02:49:42;;;;;;;;;;;;;;;25.53;47.57;100704.00;5046275;28;96414;-84
2021/07/28 02:52:08;;;;;;;;;;;;;;;25.54;47.63;100710.22;5041326;28;96599;-85
2021/07/28 02:54:35;;;;;;;;;;;;;;;25.52;47.24;100707.69;5041181;28;96910;-85
2021/07/28 02:57:01;;;;;;;;;;;;;;;25.67;46.01;100700.78;5040926;28;99193;-84
2021/07/28 02:59:29;;;;;;;;;;;;;;;25.64;46.35;100701.09;5040392;28;96729;-84
2021/07/28 03:01:55;;;;;;;;;;;;;;;25.60;46.28;100693.44;5028617;28;96758;-85
2021/07/28 03:04:22;;;;;;;;;;;;;;;25.65;45.33;100693.84;5032531;28;98198;-86
2021/07/28 03:06:52;;;;;;;;;;;;;;;25.82;45.86;100689.44;5029300;28;98743;-85
2021/07/28 03:09:18;;;;;;;;;;;;;;;26.01;45.24;100690.13;5033487;28;96773;-86
2021/07/28 03:11:45;;;;;;;;;;;;;;;25.79;45.63;100688.75;5039573;27;96779;-85
2021/07/28 03:14:12;;;;;;;;;;;;;;;25.76;46.28;100699.88;5039689;28;99077;-87
2021/07/28 03:16:39;;;;;;;;;;;;;;;25.79;46.52;100707.69;5038596;28;97003;-83
2021/07/28 03:19:06;;;;;;;;;;;;;;;25.82;46.40;100694.84;5048714;28;97259;-84
2021/07/28 03:21:33;;;;;;;;;;;;;;;25.84;45.60;100692.84;5046996;28;96884;-84
2021/07/28 03:24:01;;;;;;;;;;;;;;;25.75;45.36;100687.34;5034934;28;97929;-81
2021/07/28 03:26:28;;;;;;;;;;;;;;;25.80;45.18;100695.00;5032241;28;98943;-84
2021/07/28 03:28:54;;;;;;;;;;;;;;;25.88;45.68;100694.22;5026175;28;96838;-84
2021/07/28 03:31:31;;;;;;;;;;;;;;;25.85;44.74;100699.97;5025412;28;97140;-84
2021/07/28 03:33:57;;;;;;;;;;;;;;;25.98;44.55;100701.28;5028347;28;99591;-85
2021/07/28 03:36:24;;;;;;;;;;;;;;;25.85;46.34;100702.69;5024969;28;98841;-85
2021/07/28 03:38:51;;;;;;;;;;;;;;;25.90;46.40;100705.75;5028117;28;97604;-84
2021/07/28 03:41:20;;;;;;;;;;;;;;;25.85;46.33;100708.94;5026163;28;97008;-84
2021/07/28 03:43:47;;;;;;;;;;;;;;;25.91;45.46;100712.88;5021678;28;99580;-83
2021/07/28 03:46:13;;;;;;;;;;;;;;;25.94;44.88;100709.84;5021865;28;96769;-85
2021/07/28 03:48:40;;;;;;;;;;;;;;;25.93;44.26;100721.72;5018272;28;97578;-85
2021/07/28 03:51:06;;;;;;;;;;;;;;;25.96;44.70;100719.53;5023933;28;96608;-86
2021/07/28 03:53:35;;;;;;;;;;;;;;;25.90;44.31;100716.59;5023156;28;98250;-86
2021/07/28 03:56:03;;;;;;;;;;;;;;;25.89;44.56;100714.88;5012289;28;99012;-86
2021/07/28 03:58:33;;;;;;;;;;;;;;;25.96;44.25;100710.56;5031215;28;96875;-86
2021/07/28 04:01:00;;;;;;;;;;;;;;;26.08;44.19;100714.72;5043690;28;96794;-86
2021/07/28 04:03:26;;;;;;;;;;;;;;;25.97;44.67;100723.09;5023441;28;98189;-86
2021/07/28 04:05:54;;;;;;;;;;;;;;;26.05;44.46;100718.63;5023864;28;98108;-87
2021/07/28 04:08:20;;;;;;;;;;;;;;;26.15;44.50;100721.25;5022289;28;96965;-87
2021/07/28 04:10:47;;;;;;;;;;;;;;;26.20;43.64;100721.63;5026577;28;96830;-86
2021/07/28 04:13:14;;;;;;;;;;;;;;;26.15;43.05;100719.38;5024206;28;102153;-86
2021/07/28 04:15:42;;;;;;;;;;;;;;;26.19;43.49;100733.44;5020216;28;97938;-85
2021/07/28 04:18:09;;;;;;;;;;;;;;;26.14;43.54;100735.78;5023551;28;96942;-86
2021/07/28 04:20:35;;;;;;;;;;;;;;;26.15;43.92;100734.78;5032903;28;96722;-85
2021/07/28 04:23:02;;;;;;;;;;;;;;;26.07;43.94;100729.28;5037859;28;97841;-85
2021/07/28 04:25:29;;;;;;;;;;;;;;;25.93;44.38;100719.81;5039553;27;97685;-86
2021/07/28 04:27:55;;;;;;;;;;;;;;;26.26;44.15;100721.03;5038422;28;97877;-85
2021/07/28 04:30:23;;;;;;;;;;;;;;;26.16;44.14;100722.94;5017503;28;96834;-85
2021/07/28 04:32:54;;;;;;;;;;;;;;;26.23;43.99;100715.91;5035664;28;97582;-86
2021/07/28 04:35:21;;;;;;;;;;;;;;;26.14;44.00;100717.69;5034382;28;96606;-86
2021/07/28 04:37:47;;;;;;;;;;;;;;;26.09;44.26;100722.72;5037965;28;96912;-86
2021/07/28 04:40:15;;;;;;;;;;;;;;;26.14;43.69;100719.53;5027207;28;96920;-87
2021/07/28 04:42:42;;;;;;;;;;;;;;;26.23;43.78;100729.44;5023887;28;98457;-84
2021/07/28 04:45:09;;;;;;;;;;;;;;;26.26;43.65;100734.56;5018110;27;99969;-86
2021/07/28 04:47:36;;;;;;;;;;;;;;;26.28;43.16;100737.97;5018414;28;97049;-84
2021/07/28 04:50:04;;;;;;;;;;;;;;;26.29;43.02;100734.28;5021557;28;96833;-84
2021/07/28 04:52:31;;;;;;;;;;;;;;;26.30;43.34;100732.41;5016951;28;99216;-84
2021/07/28 04:54:57;;;;;;;;;;;;;;;26.27;43.48;100730.00;5027444;28;99129;-84
2021/07/28 04:57:24;;;;;;;;;;;;;;;26.26;43.68;100731.00;5021093;28;96871;-84
2021/07/28 04:59:50;;;;;;;;;;;;;;;26.26;43.15;100726.44;5014757;28;96809;-84
2021/07/28 05:02:17;;;;;;;;;;;;;;;26.31;43.17;100726.00;5022411;28;98368;-86
2021/07/28 05:04:44;;;;;;;;;;;;;;;26.20;43.32;100718.91;5023026;28;99094;-84
2021/07/28 05:07:19;;;;;;;;;;;;;;;26.26;43.03;100725.59;5023801;28;96558;-85
2021/07/28 05:09:47;;;;;;;;;;;;;;;26.29;43.58;100731.56;5037872;28;96856;-87
2021/07/28 05:12:14;;;;;;;;;;;;;;;26.37;43.33;100726.22;5023141;28;101225;-87
2021/07/28 05:14:40;;;;;;;;;;;;;;;26.43;43.49;100733.72;5019847;28;97848;-86
2021/07/28 05:17:07;;;;;;;;;;;;;;;26.29;43.06;100728.00;5024134;28;97072;-86
2021/07/28 05:19:34;;;;;;;;;;;;;;;26.37;43.10;100737.06;5030378;28;96882;-86
2021/07/28 05:22:04;;;;;;;;;;;;;;;26.39;43.48;100739.59;5031521;27;97082;-86
2021/07/28 05:24:34;;;;;;;;;;;;;;;26.30;42.90;100737.84;5036636;28;99105;-84
2021/07/28 05:27:01;;;;;;;;;;;;;;;26.41;42.90;100751.13;5038868;27;96370;-84
2021/07/28 05:29:28;;;;;;;;;;;;;;;26.42;43.03;100748.25;5036162;28;96507;-85
2021/07/28 05:31:55;;;;;;;;;;;;;;;26.47;43.87;100747.78;5027620;28;100337;-85
2021/07/28 05:34:23;;;;;;;;;;;;;;;26.51;43.56;100738.34;5019903;28;96755;-84
2021/07/28 05:36:49;;;;;;;;;;;;;;;26.58;43.72;100744.84;5026580;28;96588;-85
2021/07/28 05:39:17;;;;;;;;;;;;;;;26.59;43.55;100736.53;5039965;28;96885;-85
2021/07/28 05:41:45;;;;;;;;;;;;;;;26.56;43.61;100739.59;5027192;28;96943;-85
2021/07/28 05:44:12;;;;;;;;;;;;;;;26.54;42.98;100740.72;5031732;28;98867;-88
2021/07/28 05:46:45;;;;;;;;;;;;;;;26.41;43.50;100735.72;5038658;27;95972;-85
2021/07/28 05:49:15;;;;;;;;;;;;;;;26.44;43.20;100737.28;5049459;28;97116;-86
2021/07/28 05:51:42;;;;;;;;;;;;;;;26.49;43.00;100733.09;5040833;27;99074;-86
2021/07/28 05:54:08;;;;;;;;;;;;;;;26.50;42.62;100734.78;5047543;28;96671;-85
2021/07/28 05:56:35;;;;;;;;;;;;;;;26.56;42.28;100730.59;5038469;28;97004;-85
2021/07/28 05:59:03;;;;;;;;;;;;;;;26.58;41.99;100726.69;5041239;28;98122;-84
2021/07/28 06:01:30;;;;;;;;;;;;;;;26.63;42.00;100722.69;5026263;28;98203;-87
2021/07/28 06:03:56;;;;;;;;;;;;;;;26.70;41.38;100710.22;5038014;28;100533;-85
2021/07/28 06:06:26;;;;;;;;;;;;;;;26.85;40.74;100716.72;5026538;28;97705;-85
2021/07/28 06:08:52;;;;;;;;;;;;;;;26.89;40.79;100721.72;5038746;27;96579;-83
2021/07/28 06:11:20;;;;;;;;;;;;;;;26.93;40.57;100709.53;5044656;27;99966;-85
2021/07/28 06:13:46;;;;;;;;;;;;;;;26.96;39.93;100713.78;5044333;28;101527;-83
2021/07/28 06:16:14;;;;;;;;;;;;;;;27.20;39.52;100719.34;5043907;28;96724;-84
2021/07/28 06:18:42;;;;;;;;;;;;;;;27.07;39.41;100724.34;5021862;28;97353;-85
2021/07/28 06:21:09;;;;;;;;;;;;;;;26.99;39.63;100724.31;5022880;28;99172;-85
2021/07/28 06:23:36;;;;;;;;;;;;;;;26.43;38.94;100722.88;5021229;28;96713;-85
2021/07/28 06:26:02;;;;;;;;;;;;;;;26.80;39.90;100736.19;5014867;28;97011;-85
2021/07/28 06:28:28;;;;;;;;;;;;;;;26.95;39.47;100733.78;5019591;28;96956;-85
2021/07/28 06:30:56;;;;;;;;;;;;;;;27.02;39.53;100728.56;5024917;28;98090;-86
2021/07/28 06:33:24;;;;;;;;;;;;;;;27.18;38.94;100734.91;5024736;28;97704;-86
2021/07/28 06:35:51;;;;;;;;;;;;;;;27.23;37.33;100729.88;5025359;28;97182;-87
2021/07/28 06:38:22;;;;;;;;;;;;;;;27.25;37.76;100730.53;5028778;28;98469;-88
2021/07/28 06:40:48;;;;;;;;;;;;;;;27.22;37.96;100735.47;5043450;27;98865;-84
2021/07/28 06:43:15;;;;;;;;;;;;;;;27.17;37.54;100735.97;5027030;28;98721;-85
2021/07/28 06:45:42;;;;;;;;;;;;;;;27.04;38.61;100742.81;5022991;28;97471;-85
2021/07/28 06:48:08;;;;;;;;;;;;;;;27.06;38.87;100749.78;5024454;28;96785;-84
2021/07/28 06:50:37;;;;;;;;;;;;;;;27.09;38.64;100737.75;5045874;28;101225;-84
2021/07/28 06:53:10;;;;;;;;;;;;;;;27.13;38.71;100745.41;5040834;28;97649;-85
2021/07/28 06:55:39;;;;;;;;;;;;;;;27.16;39.14;100744.25;5039910;28;97288;-85
2021/07/28 06:58:06;;;;;;;;;;;;;;;27.07;38.40;100743.34;5036345;28;96737;-85
2021/07/28 07:00:33;;;;;;;;;;;;;;;27.06;38.45;100757.06;5035896;28;100879;-85
2021/07/28 07:03:00;;;;;;;;;;;;;;;26.74;39.02;100760.38;5038904;28;98887;-85
2021/07/28 07:05:27;;;;;;;;;;;;;;;26.75;38.84;100762.94;5038459;28;96786;-86
2021/07/28 07:08:04;;;;;;;;;;;;;;;26.65;39.24;100769.47;5039401;28;96530;-86
2021/07/28 07:10:31;;;;;;;;;;;;;;;27.02;38.91;100769.25;5032021;28;99581;-86
2021/07/28 07:12:58;;;;;;;;;;;;;;;27.05;38.99;100768.91;5033848;28;97703;-83
2021/07/28 07:15:24;;;;;;;;;;;;;;;26.98;39.68;100785.81;5039396;28;96976;-83
2021/07/28 07:17:52;;;;;;;;;;;;;;;27.09;39.98;100778.44;5034013;28;96909;-84
2021/07/28 07:20:20;;;;;;;;;;;;;;;26.88;41.27;100779.63;5031105;28;99408;-84
2021/07/28 07:22:48;;;;;;;;;;;;;;;27.09;41.14;100782.00;5026466;28;99503;-85
2021/07/28 07:25:16;;;;;;;;;;;;;;;27.25;41.18;100773.94;5034444;28;96679;-85
2021/07/28 07:27:47;;;;;;;;;;;;;;;27.43;40.63;100773.91;5035529;28;96727;-82
2021/07/28 07:30:14;;;;;;;;;;;;;;;27.06;40.82;100776.88;5035816;28;98839;-84
2021/07/28 07:32:41;;;;;;;;;;;;;;;27.18;40.72;100769.31;5035323;28;99754;-83
2021/07/28 07:35:10;;;;;;;;;;;;;;;26.95;41.02;100766.31;5051768;28;96217;-84
2021/07/28 07:37:37;;;;;;;;;;;;;;;27.42;40.18;100769.47;5041584;27;96724;-83
2021/07/28 07:40:08;;;;;;;;;;;;;;;27.30;39.32;100765.34;5044955;27;98795;-86
2021/07/28 07:42:37;;;;;;;;;;;;;;;28.06;37.60;100766.16;5051782;27;99070;-84
2021/07/28 07:45:04;;;;;;;;;;;;;;;28.38;37.01;100753.66;5044349;27;95929;-83
2021/07/28 07:47:40;;;;;;;;;;;;;;;29.09;35.44;100758.38;5057938;27;96269;-84
2021/07/28 07:50:14;;;;;;;;;;;;;;;28.73;36.05;100766.91;5046090;27;98844;-85
2021/07/28 07:52:40;;;;;;;;;;;;;;;29.08;35.40;100767.59;5044768;28;99325;-85
2021/07/28 07:55:11;;;;;;;;;;;;;;;29.48;34.79;100775.63;5032980;28;96697;-85
2021/07/28 07:57:40;;;;;;;;;;;;;;;29.00;35.67;100773.88;5027959;28;96898;-86
2021/07/28 08:00:07;;;;;;;;;;;;;;;28.68;36.40;100772.03;5009499;28;98998;-84
2021/07/28 08:02:36;;;;;;;;;;;;;;;28.85;35.79;100776.44;5012198;28;99130;-85
2021/07/28 08:05:02;;;;;;;;;;;;;;;29.36;35.49;100781.63;5022102;28;96822;-84
2021/07/28 08:07:29;;;;;;;;;;;;;;;29.35;35.70;100786.22;5040736;28;96890;-83
2021/07/28 08:09:56;;;;;;;;;;;;;;;29.47;35.55;100773.94;5031083;28;98720;-84
2021/07/28 08:12:25;;;;;;;;;;;;;;;29.73;35.35;100764.66;5029207;28;99219;-85
2021/07/28 08:14:53;;;;;;;;;;;;;;;29.86;35.07;100767.66;5025651;27;96652;-85
2021/07/28 08:17:20;;;;;;;;;;;;;;;29.64;35.30;100767.41;5027408;28;97408;-85
2021/07/28 08:19:47;;;;;;;;;;;;;;;29.08;36.42;100767.59;5028530;28;97592;-85
2021/07/28 08:22:15;;;;;;;;;;;;;;;29.08;36.22;100767.59;5009063;28;100838;-85
2021/07/28 08:24:44;;;;;;;;;;;;;;;28.88;36.47;100769.84;5018421;28;96766;-84
2021/07/28 08:27:11;;;;;;;;;;;;;;;29.88;35.50;100765.56;5029486;28;96682;-83
2021/07/28 08:32:21;;;;;;;;;;;;;;;30.44;34.66;100753.50;5029031;28;98875;-84
2021/07/28 08:34:49;;;;;;;;;;;;;;;30.85;34.09;100751.28;5023197;28;96787;-85
2021/07/28 08:37:20;;;;;;;;;;;;;;;30.51;34.72;100756.38;5025456;28;96880;-85
2021/07/28 08:39:46;;;;;;;;;;;;;;;29.55;36.26;100763.00;5019661;28;99931;-86
2021/07/28 08:42:16;;;;;;;;;;;;;;;29.30;37.28;100764.97;5029373;28;99274;-86
2021/07/28 08:44:43;;;;;;;;;;;;;;;30.13;35.83;100758.16;5025116;28;96678;-88
2021/07/28 08:47:11;;;;;;;;;;;;;;;29.47;36.74;100757.59;5028165;28;96880;-86
2021/07/28 08:49:45;;;;;;;;;;;;;;;29.43;37.49;100748.09;5023983;28;98211;-85
2021/07/28 08:52:11;;;;;;;;;;;;;;;29.81;36.60;100743.66;5013524;28;101607;-84
2021/07/28 08:54:38;;;;;;;;;;;;;;;30.22;36.63;100754.31;5030369;28;96791;-83
2021/07/28 08:57:04;;;;;;;;;;;;;;;30.51;35.45;100745.47;5019798;28;96888;-84
2021/07/28 08:59:34;;;;;;;;;;;;;;;30.34;35.57;100752.88;5018636;28;102278;-83
2021/07/28 09:02:01;;;;;;;;;;;;;;;30.13;36.38;100756.25;5021900;28;99382;-84
2021/07/28 09:04:29;;;;;;;;;;;;;;;30.09;36.80;100753.06;5020904;28;96920;-85
2021/07/28 09:06:57;;;;;;;;;;;;;;;29.88;36.90;100749.22;5022090;28;96950;-84
2021/07/28 09:09:24;;;;;;;;;;;;;;;29.54;36.88;100753.16;5027039;28;99398;-82
2021/07/28 09:11:54;;;;;;;;;;;;;;;29.67;36.67;100747.97;5031427;28;98066;-84
2021/07/28 09:14:31;;;;;;;;;;;;;;;29.58;37.02;100753.66;5034956;28;96763;-85
2021/07/28 09:17:12;;;;;;;;;;;;;;;30.07;36.06;100748.81;5027618;27;98354;-84
2021/07/28 09:19:41;;;;;;;;;;;;;;;30.01;35.40;100744.06;5022433;28;98684;-85
2021/07/28 09:22:10;;;;;;;;;;;;;;;30.20;35.60;100749.06;5009637;28;100215;-85
2021/07/28 09:24:37;;;;;;;;;;;;;;;30.23;34.51;100751.44;5017126;28;96936;-83
2021/07/28 09:32:34;;;;;;;;;;;;;;;29.80;34.37;100744.69;5023024;27;96825;-86
2021/07/28 09:35:01;;;;;;;;;;;;;;;30.25;34.49;100741.22;5020770;28;96780;-85
2021/07/28 09:37:38;;;;;;;;;;;;;;;30.26;34.60;100753.78;5017606;28;96875;-85
2021/07/28 09:40:05;;;;;;;;;;;;;;;30.82;33.37;100748.91;5021216;28;101352;-83
2021/07/28 09:42:32;;;;;;;;;;;;;;;30.43;33.46;100746.34;5017847;28;100012;-84
2021/07/28 09:44:59;;;;;;;;;;;;;;;30.30;33.75;100760.56;5019361;28;98406;-86
2021/07/28 09:47:27;;;;;;;;;;;;;;;30.37;32.93;100753.38;5018752;28;97162;-84
2021/07/28 09:50:13;;;;;;;;;;;;;;;30.58;32.32;100757.31;5015326;28;100494;-84
2021/07/28 09:52:55;;;;;;;;;;;;;;;30.32;32.29;100758.53;5023440;28;99173;-85
2021/07/28 09:55:29;;;;;;;;;;;;;;;30.23;31.98;100759.59;5011568;28;98542;-85
2021/07/28 09:58:00;;;;;;;;;;;;;;;30.32;32.11;100749.50;5023097;28;97498;-85
2021/07/28 10:00:28;;;;;;;;;;;;;;;30.54;31.79;100753.25;5025843;28;99315;-85
2021/07/28 10:03:04;;;;;;;;;;;;;;;30.39;31.83;100747.75;5017829;28;101294;-85
2021/07/28 10:05:36;;;;;;;;;;;;;;;30.84;31.60;100753.16;5022172;28;96867;-84
2021/07/28 10:08:08;;;;;;;;;;;;;;;31.06;30.74;100742.38;5034619;28;97251;-84
2021/07/28 10:10:38;;;;;;;;;;;;;;;31.20;30.15;100742.38;5021936;28;99367;-83
2021/07/28 10:13:05;;;;;;;;;;;;;;;31.12;29.89;100734.28;5024816;28;100788;-86
2021/07/28 10:15:31;;;;;;;;;;;;;;;31.26;30.09;100738.91;5026665;27;97563;-85
2021/07/28 10:17:59;;;;;;;;;;;;;;;30.71;30.94;100735.72;5020738;28;96974;-86
2021/07/28 10:23:20;;;;;;;;;;;;;;;31.10;30.25;100733.66;5032272;28;98445;-84
2021/07/28 10:25:55;;;;;;;;;;;;;;;31.40;29.90;100730.91;5026464;28;97682;-85
2021/07/28 10:28:21;;;;;;;;;;;;;;;30.60;30.55;100723.38;5028424;28;96876;-86
2021/07/28 10:31:04;;;;;;;;;;;;;;;30.82;29.83;100721.63;5021258;28;99689;-85
2021/07/28 10:33:32;;;;;;;;;;;;;;;31.17;29.77;100723.69;5032435;28;99120;-86
2021/07/28 10:35:59;;;;;;;;;;;;;;;30.08;31.13;100723.25;5036831;28;96816;-85
2021/07/28 10:38:27;;;;;;;;;;;;;;;30.13;30.87;100720.00;5030780;28;97686;-85
2021/07/28 10:41:01;;;;;;;;;;;;;;;31.07;30.01;100731.28;5025058;28;99143;-85
2021/07/28 10:43:28;;;;;;;;;;;;;;;31.47;28.65;100723.63;5029535;28;99195;-86
2021/07/28 10:45:56;;;;;;;;;;;;;;;31.32;29.17;100725.53;5034904;28;96765;-86
2021/07/28 10:48:46;;;;;;;;;;;;;;;31.54;28.94;100721.84;5029580;28;97236;-86
2021/07/28 10:51:35;;;;;;;;;;;;;;;31.41;29.40;100729.88;5022717;28;97424;-84
2021/07/28 10:54:03;;;;;;;;;;;;;;;31.83;28.92;100731.91;5027851;28;100385;-85
2021/07/28 10:56:54;;;;;;;;;;;;;;;31.79;28.52;100731.41;5027950;28;96773;-85
2021/07/28 11:03:01;;;;;;;;;;;;;;;32.01;28.79;100730.41;5034900;27;96829;-90
2021/07/28 11:05:31;;;;;;;;;;;;;;;31.69;28.35;100739.09;5046249;27;96560;-90
2021/07/28 11:10:54;;;;;;;;;;;;;;;31.76;28.96;100736.44;5036139;28;96729;-91
2021/07/28 11:16:13;;;;;;;;;;;;;;;32.01;29.21;100729.56;5027356;28;98579;-90
2021/07/28 11:21:23;;;;;;;;;;;;;;;32.26;28.67;100725.44;5039077;28;96869;-91
2021/07/28 11:26:36;;;;;;;;;;;;;;;32.32;28.04;100726.53;5033798;28;98975;-89
2021/07/28 11:29:07;;;;;;;;;;;;;;;32.35;28.55;100737.94;5029137;28;96718;-86
2021/07/28 11:31:35;;;;;;;;;;;;;;;32.41;28.18;100739.91;5028472;28;96843;-86
2021/07/28 11:34:07;;;;;;;;;;;;;;;32.33;26.95;100741.91;5024357;28;98067;-85
2021/07/28 11:36:34;;;;;;;;;;;;;;;32.28;27.17;100730.72;5027520;28;98963;-85
2021/07/28 11:39:06;;;;;;;;;;;;;;;32.42;27.32;100727.06;5035973;28;96833;-85
2021/07/28 11:41:34;;;;;;;;;;;;;;;32.45;27.66;100737.59;5031809;28;97120;-83
2021/07/28 11:44:01;;;;;;;;;;;;;;;32.01;27.76;100735.88;5039023;27;97020;-83
2021/07/28 11:46:29;;;;;;;;;;;;;;;32.41;27.31;100730.84;5041405;28;98002;-84
2021/07/28 11:48:57;;;;;;;;;;;;;;;32.10;27.79;100733.03;5041261;27;95878;-83
2021/07/28 11:51:38;;;;;;;;;;;;;;;31.35;28.60;100733.34;5037896;28;96647;-84
2021/07/28 11:54:09;;;;;;;;;;;;;;;31.84;28.44;100733.56;5022635;28;100111;-86
2021/07/28 11:59:22;;;;;;;;;;;;;;;32.27;27.42;100734.50;5026960;27;97055;-82
2021/07/28 12:01:54;;;;;;;;;;;;;;;32.31;27.35;100731.16;5023969;28;96831;-81
2021/07/28 12:04:22;;;;;;;;;;;;;;;32.30;27.08;100729.47;5014728;28;99729;-80
2021/07/28 12:06:48;;;;;;;;;;;;;;;32.16;27.46;100732.28;5014224;28;100764;-80
2021/07/28 12:09:19;;;;;;;;;;;;;;;32.41;27.16;100741.78;5012877;28;97314;-82
2021/07/28 12:11:46;;;;;;;;;;;;;;;32.52;26.41;100738.50;5009845;28;96938;-83
2021/07/28 12:14:22;;;;;;;;;;;;;;;32.39;26.88;100735.66;5021604;28;96787;-83
2021/07/28 12:16:50;;;;;;;;;;;;;;;32.37;26.89;100738.59;5016032;28;100400;-81
2021/07/28 12:19:24;;;;;;;;;;;;;;;31.36;28.66;100735.06;5017297;28;97932;-82
2021/07/28 12:21:57;;;;;;;;;;;;;;;31.81;28.17;100744.91;5020956;28;96954;-83
2021/07/28 12:24:34;;;;;;;;;;;;;;;30.98;28.86;100742.47;5020222;28;98277;-82
2021/07/28 12:27:16;;;;;;;;;;;;;;;31.83;27.98;100737.38;5015695;28;99932;-83
2021/07/28 12:29:47;;;;;;;;;;;;;;;31.81;28.15;100742.16;5023687;28;97123;-80
2021/07/28 12:32:14;;;;;;;;;;;;;;;31.12;28.80;100733.44;5018912;28;97329;-79
2021/07/28 12:34:43;;;;;;;;;;;;;;;32.04;28.39;100738.22;5013763;28;100476;-81
2021/07/28 12:37:34;;;;;;;;;;;;;;;31.90;28.59;100733.63;5024513;28;97695;-82
2021/07/28 12:40:00;;;;;;;;;;;;;;;32.19;27.42;100734.63;5000566;28;97351;-80
2021/07/28 12:42:27;;;;;;;;;;;;;;;32.33;27.73;100739.19;5015118;28;97014;-81
2021/07/28 12:44:53;;;;;;;;;;;;;;;32.47;27.17;100735.53;5018520;28;96943;-82
2021/07/28 12:47:19;;;;;;;;;;;;;;;32.60;27.40;100735.66;5014836;28;101066;-81
2021/07/28 12:49:47;;;;;;;;;;;;;;;32.55;27.31;100735.41;5015146;28;97004;-81
2021/07/28 12:52:14;;;;;;;;;;;;;;;32.13;28.02;100733.47;5015813;28;96874;-81
2021/07/28 12:54:43;;;;;;;;;;;;;;;31.58;28.80;100734.06;5016702;28;97628;-83
2021/07/28 12:57:10;;;;;;;;;;;;;;;32.08;28.63;100727.75;5017106;28;99906;-83
2021/07/28 12:59:36;;;;;;;;;;;;;;;32.36;28.27;100725.13;5010306;28;96866;-83
2021/07/28 13:02:03;;;;;;;;;;;;;;;32.27;28.13;100729.88;5016221;28;97829;-82
2021/07/28 13:04:30;;;;;;;;;;;;;;;32.20;28.56;100728.13;5016718;28;99166;-81
2021/07/28 13:07:07;;;;;;;;;;;;;;;32.48;28.15;100725.44;5018215;28;100033;-82
2021/07/28 13:09:34;;;;;;;;;;;;;;;32.23;28.12;100742.22;5022233;28;96861;-82
2021/07/28 13:12:00;;;;;;;;;;;;;;;32.50;27.99;100737.84;5011587;28;97122;-82
2021/07/28 13:14:26;;;;;;;;;;;;;;;32.88;27.16;100732.94;5016916;28;98794;-82
2021/07/28 13:16:53;;;;;;;;;;;;;;;33.13;26.11;100730.59;5010369;28;99126;-82